sensor_id;sensor_type;location;lat;lon;timestamp;temperature;humidity
56761;DHT22;42633;44.494;11.356;2022-08-11T00:00:38;25.60;77.20
56761;DHT22;42633;44.494;11.356;2022-08-11T00:03:58;25.50;77.40
56761;DHT22;42633;44.494;11.356;2022-08-11T00:07:04;25.50;77.60
56761;DHT22;42633;44.494;11.356;2022-08-11T00:10:12;25.50;77.80
56761;DHT22;42633;44.494;11.356;2022-08-11T00:13:16;25.40;77.80
56761;DHT22;42633;44.494;11.356;2022-08-11T00:16:24;25.40;77.90
56761;DHT22;42633;44.494;11.356;2022-08-11T00:19:32;25.40;78.20
56761;DHT22;42633;44.494;11.356;2022-08-11T00:22:41;25.40;78.20
56761;DHT22;42633;44.494;11.356;2022-08-11T00:25:48;25.40;78.10
56761;DHT22;42633;44.494;11.356;2022-08-11T00:28:53;25.40;78.10
56761;DHT22;42633;44.494;11.356;2022-08-11T00:32:00;25.30;78.20
56761;DHT22;42633;44.494;11.356;2022-08-11T00:35:07;25.30;78.40
56761;DHT22;42633;44.494;11.356;2022-08-11T00:38:14;25.30;78.50
56761;DHT22;42633;44.494;11.356;2022-08-11T00:41:43;25.30;78.70
56761;DHT22;42633;44.494;11.356;2022-08-11T00:48:28;25.20;78.60
56761;DHT22;42633;44.494;11.356;2022-08-11T01:02:17;25.20;78.30
56761;DHT22;42633;44.494;11.356;2022-08-11T01:05:34;25.20;78.40
56761;DHT22;42633;44.494;11.356;2022-08-11T01:13:08;25.20;78.30
56761;DHT22;42633;44.494;11.356;2022-08-11T01:47:25;24.70;79.90
56761;DHT22;42633;44.494;11.356;2022-08-11T01:54:48;24.60;80.00
56761;DHT22;42633;44.494;11.356;2022-08-11T01:58:12;24.50;80.30
56761;DHT22;42633;44.494;11.356;2022-08-11T02:02:02;24.50;80.40
56761;DHT22;42633;44.494;11.356;2022-08-11T02:11:48;24.50;80.10
56761;DHT22;42633;44.494;11.356;2022-08-11T02:15:13;24.40;80.00
56761;DHT22;42633;44.494;11.356;2022-08-11T02:18:26;24.30;80.10
56761;DHT22;42633;44.494;11.356;2022-08-11T02:21:59;24.30;80.50
56761;DHT22;42633;44.494;11.356;2022-08-11T02:25:40;24.20;80.80
56761;DHT22;42633;44.494;11.356;2022-08-11T02:29:22;24.10;81.00
56761;DHT22;42633;44.494;11.356;2022-08-11T02:36:13;24.00;81.80
56761;DHT22;42633;44.494;11.356;2022-08-11T02:39:23;24.00;82.10
56761;DHT22;42633;44.494;11.356;2022-08-11T02:49:50;24.00;81.70
56761;DHT22;42633;44.494;11.356;2022-08-11T02:53:14;23.90;81.80
56761;DHT22;42633;44.494;11.356;2022-08-11T03:03:29;23.70;81.30
56761;DHT22;42633;44.494;11.356;2022-08-11T03:10:31;23.50;81.40
56761;DHT22;42633;44.494;11.356;2022-08-11T03:13:48;23.20;82.10
56761;DHT22;42633;44.494;11.356;2022-08-11T03:27:11;22.90;83.60
56761;DHT22;42633;44.494;11.356;2022-08-11T03:34:09;23.10;83.20
56761;DHT22;42633;44.494;11.356;2022-08-11T03:51:38;23.10;83.90
56761;DHT22;42633;44.494;11.356;2022-08-11T03:55:18;23.10;84.90
56761;DHT22;42633;44.494;11.356;2022-08-11T04:02:33;23.10;85.10
56761;DHT22;42633;44.494;11.356;2022-08-11T04:19:49;23.20;85.90
56761;DHT22;42633;44.494;11.356;2022-08-11T04:23:06;23.20;86.10
56761;DHT22;42633;44.494;11.356;2022-08-11T04:26:26;23.30;86.30
56761;DHT22;42633;44.494;11.356;2022-08-11T04:29:45;23.20;86.70
56761;DHT22;42633;44.494;11.356;2022-08-11T04:54:10;23.70;86.80
56761;DHT22;42633;44.494;11.356;2022-08-11T04:57:58;23.80;86.40
56761;DHT22;42633;44.494;11.356;2022-08-11T05:01:39;23.80;85.90
56761;DHT22;42633;44.494;11.356;2022-08-11T05:12:45;24.00;85.40
56761;DHT22;42633;44.494;11.356;2022-08-11T05:15:55;24.00;85.60
56761;DHT22;42633;44.494;11.356;2022-08-11T05:19:19;24.00;85.90
56761;DHT22;42633;44.494;11.356;2022-08-11T05:22:47;24.20;85.70
56761;DHT22;42633;44.494;11.356;2022-08-11T05:26:13;24.50;84.60
56761;DHT22;42633;44.494;11.356;2022-08-11T05:29:39;24.80;83.50
56761;DHT22;42633;44.494;11.356;2022-08-11T05:33:24;24.80;83.30
56761;DHT22;42633;44.494;11.356;2022-08-11T05:36:59;24.70;83.70
56761;DHT22;42633;44.494;11.356;2022-08-11T05:40:09;24.60;83.90
56761;DHT22;42633;44.494;11.356;2022-08-11T05:43:32;24.50;83.90
56761;DHT22;42633;44.494;11.356;2022-08-11T05:46:56;24.60;83.20
56761;DHT22;42633;44.494;11.356;2022-08-11T05:50:21;24.70;82.60
56761;DHT22;42633;44.494;11.356;2022-08-11T05:53:54;24.80;82.10
56761;DHT22;42633;44.494;11.356;2022-08-11T05:57:19;24.90;81.70
56761;DHT22;42633;44.494;11.356;2022-08-11T06:00:24;24.90;81.60
56761;DHT22;42633;44.494;11.356;2022-08-11T06:03:31;24.90;81.80
56761;DHT22;42633;44.494;11.356;2022-08-11T06:06:37;24.90;81.70
56761;DHT22;42633;44.494;11.356;2022-08-11T06:09:48;25.00;81.50
56761;DHT22;42633;44.494;11.356;2022-08-11T06:12:53;25.00;81.70
56761;DHT22;42633;44.494;11.356;2022-08-11T06:16:00;25.00;81.90
56761;DHT22;42633;44.494;11.356;2022-08-11T06:19:05;25.10;81.10
56761;DHT22;42633;44.494;11.356;2022-08-11T06:22:10;25.20;81.00
56761;DHT22;42633;44.494;11.356;2022-08-11T06:25:16;25.20;81.00
56761;DHT22;42633;44.494;11.356;2022-08-11T06:28:31;25.30;80.80
56761;DHT22;42633;44.494;11.356;2022-08-11T06:31:36;25.40;80.40
56761;DHT22;42633;44.494;11.356;2022-08-11T06:38:11;25.40;80.20
56761;DHT22;42633;44.494;11.356;2022-08-11T06:44:56;25.50;80.20
56761;DHT22;42633;44.494;11.356;2022-08-11T06:48:04;25.60;79.80
56761;DHT22;42633;44.494;11.356;2022-08-11T06:51:10;25.70;79.60
56761;DHT22;42633;44.494;11.356;2022-08-11T06:54:17;25.70;78.70
56761;DHT22;42633;44.494;11.356;2022-08-11T06:57:22;25.80;78.40
56761;DHT22;42633;44.494;11.356;2022-08-11T07:00:47;25.80;78.10
56761;DHT22;42633;44.494;11.356;2022-08-11T07:04:03;25.80;77.80
56761;DHT22;42633;44.494;11.356;2022-08-11T07:15:02;26.00;77.70
56761;DHT22;42633;44.494;11.356;2022-08-11T07:18:32;26.10;77.00
56761;DHT22;42633;44.494;11.356;2022-08-11T07:21:56;26.10;76.90
56761;DHT22;42633;44.494;11.356;2022-08-11T07:25:21;26.00;77.00
56761;DHT22;42633;44.494;11.356;2022-08-11T07:28:46;26.20;76.70
56761;DHT22;42633;44.494;11.356;2022-08-11T07:32:11;26.40;76.00
56761;DHT22;42633;44.494;11.356;2022-08-11T07:35:20;26.60;75.60
56761;DHT22;42633;44.494;11.356;2022-08-11T07:38:49;26.60;75.40
56761;DHT22;42633;44.494;11.356;2022-08-11T07:41:56;26.70;75.60
56761;DHT22;42633;44.494;11.356;2022-08-11T07:45:04;26.70;74.90
56761;DHT22;42633;44.494;11.356;2022-08-11T07:48:28;26.90;74.70
56761;DHT22;42633;44.494;11.356;2022-08-11T07:51:52;27.00;74.30
56761;DHT22;42633;44.494;11.356;2022-08-11T07:55:17;27.00;72.70
56761;DHT22;42633;44.494;11.356;2022-08-11T07:58:24;27.10;72.20
56761;DHT22;42633;44.494;11.356;2022-08-11T08:01:47;27.20;73.20
56761;DHT22;42633;44.494;11.356;2022-08-11T08:05:10;27.40;72.60
56761;DHT22;42633;44.494;11.356;2022-08-11T08:08:34;27.50;72.20
56761;DHT22;42633;44.494;11.356;2022-08-11T08:12:00;27.70;72.40
56761;DHT22;42633;44.494;11.356;2022-08-11T08:15:23;27.80;70.40
56761;DHT22;42633;44.494;11.356;2022-08-11T08:18:46;27.70;71.30
56761;DHT22;42633;44.494;11.356;2022-08-11T08:21:50;27.80;70.50
56761;DHT22;42633;44.494;11.356;2022-08-11T08:24:54;27.90;68.70
56761;DHT22;42633;44.494;11.356;2022-08-11T08:28:01;28.20;68.90
56761;DHT22;42633;44.494;11.356;2022-08-11T08:31:06;28.20;67.90
56761;DHT22;42633;44.494;11.356;2022-08-11T08:34:12;28.40;68.00
56761;DHT22;42633;44.494;11.356;2022-08-11T08:37:18;28.50;67.80
56761;DHT22;42633;44.494;11.356;2022-08-11T08:40:23;28.50;65.90
56761;DHT22;42633;44.494;11.356;2022-08-11T08:43:28;28.50;66.10
56761;DHT22;42633;44.494;11.356;2022-08-11T08:46:36;28.70;65.10
56761;DHT22;42633;44.494;11.356;2022-08-11T08:49:48;28.60;64.80
56761;DHT22;42633;44.494;11.356;2022-08-11T08:52:57;28.80;64.90
56761;DHT22;42633;44.494;11.356;2022-08-11T08:56:02;29.00;64.90
56761;DHT22;42633;44.494;11.356;2022-08-11T08:59:08;29.10;64.50
56761;DHT22;42633;44.494;11.356;2022-08-11T09:02:14;29.40;62.90
56761;DHT22;42633;44.494;11.356;2022-08-11T09:05:20;29.50;63.20
56761;DHT22;42633;44.494;11.356;2022-08-11T09:08:25;29.50;63.00
56761;DHT22;42633;44.494;11.356;2022-08-11T09:11:31;29.50;62.10
56761;DHT22;42633;44.494;11.356;2022-08-11T09:14:54;29.60;60.30
56761;DHT22;42633;44.494;11.356;2022-08-11T09:18:11;29.60;61.00
56761;DHT22;42633;44.494;11.356;2022-08-11T09:21:16;29.70;60.80
56761;DHT22;42633;44.494;11.356;2022-08-11T09:24:24;29.90;62.10
56761;DHT22;42633;44.494;11.356;2022-08-11T09:27:46;30.00;60.50
56761;DHT22;42633;44.494;11.356;2022-08-11T09:30:51;29.60;60.60
56761;DHT22;42633;44.494;11.356;2022-08-11T09:33:57;29.70;59.20
56761;DHT22;42633;44.494;11.356;2022-08-11T09:37:03;29.70;59.40
56761;DHT22;42633;44.494;11.356;2022-08-11T09:40:26;29.90;59.10
56761;DHT22;42633;44.494;11.356;2022-08-11T09:43:34;30.10;58.80
56761;DHT22;42633;44.494;11.356;2022-08-11T09:46:59;30.10;58.80
56761;DHT22;42633;44.494;11.356;2022-08-11T09:50:04;30.20;59.10
56761;DHT22;42633;44.494;11.356;2022-08-11T09:53:09;30.40;58.20
56761;DHT22;42633;44.494;11.356;2022-08-11T09:56:20;30.50;58.00
56761;DHT22;42633;44.494;11.356;2022-08-11T09:59:43;30.50;58.10
56761;DHT22;42633;44.494;11.356;2022-08-11T10:02:48;30.50;57.30
56761;DHT22;42633;44.494;11.356;2022-08-11T10:05:59;30.50;56.50
56761;DHT22;42633;44.494;11.356;2022-08-11T10:09:24;30.70;56.00
56761;DHT22;42633;44.494;11.356;2022-08-11T10:12:35;30.80;56.50
56761;DHT22;42633;44.494;11.356;2022-08-11T10:15:42;31.00;55.80
56761;DHT22;42633;44.494;11.356;2022-08-11T10:18:49;30.80;53.90
56761;DHT22;42633;44.494;11.356;2022-08-11T10:21:59;30.80;53.60
56761;DHT22;42633;44.494;11.356;2022-08-11T10:25:37;30.80;53.60
56761;DHT22;42633;44.494;11.356;2022-08-11T10:29:02;31.00;52.80
56761;DHT22;42633;44.494;11.356;2022-08-11T10:32:33;31.20;52.80
56761;DHT22;42633;44.494;11.356;2022-08-11T10:35:56;31.60;52.50
56761;DHT22;42633;44.494;11.356;2022-08-11T10:39:04;31.50;51.70
56761;DHT22;42633;44.494;11.356;2022-08-11T10:42:09;31.40;50.00
56761;DHT22;42633;44.494;11.356;2022-08-11T10:45:37;31.50;51.20
56761;DHT22;42633;44.494;11.356;2022-08-11T10:49:00;31.70;49.50
56761;DHT22;42633;44.494;11.356;2022-08-11T10:52:05;32.10;49.20
56761;DHT22;42633;44.494;11.356;2022-08-11T10:55:27;32.40;48.20
56761;DHT22;42633;44.494;11.356;2022-08-11T10:58:51;32.10;49.10
56761;DHT22;42633;44.494;11.356;2022-08-11T11:01:57;32.00;49.10
56761;DHT22;42633;44.494;11.356;2022-08-11T11:08:14;32.50;49.60
56761;DHT22;42633;44.494;11.356;2022-08-11T11:11:42;32.70;49.70
56761;DHT22;42633;44.494;11.356;2022-08-11T11:15:07;32.90;49.40
56761;DHT22;42633;44.494;11.356;2022-08-11T11:18:33;32.60;49.90
56761;DHT22;42633;44.494;11.356;2022-08-11T11:21:39;32.80;50.00
56761;DHT22;42633;44.494;11.356;2022-08-11T11:25:02;33.00;49.60
56761;DHT22;42633;44.494;11.356;2022-08-11T11:28:31;33.30;49.40
56761;DHT22;42633;44.494;11.356;2022-08-11T11:32:05;33.60;48.80
56761;DHT22;42633;44.494;11.356;2022-08-11T11:38:19;33.70;48.50
56761;DHT22;42633;44.494;11.356;2022-08-11T11:41:24;33.80;48.40
56761;DHT22;42633;44.494;11.356;2022-08-11T11:44:28;34.00;47.90
56761;DHT22;42633;44.494;11.356;2022-08-11T11:47:35;33.90;48.20
56761;DHT22;42633;44.494;11.356;2022-08-11T11:50:40;33.60;47.70
